sensor_id;sensor_type;location;lat;lon;timestamp;temperature;humidity
18882;DHT22;9573;50.948;11.600;2023-05-29T00:01:22;10.10;99.90
18882;DHT22;9573;50.948;11.600;2023-05-29T00:03:50;10.10;99.90
18882;DHT22;9573;50.948;11.600;2023-05-29T00:06:18;10.10;99.90
18882;DHT22;9573;50.948;11.600;2023-05-29T00:08:47;10.00;99.90
18882;DHT22;9573;50.948;11.600;2023-05-29T00:11:14;10.00;99.90
18882;DHT22;9573;50.948;11.600;2023-05-29T00:13:41;10.00;99.90
18882;DHT22;9573;50.948;11.600;2023-05-29T00:16:08;10.00;99.90
18882;DHT22;9573;50.948;11.600;2023-05-29T00:18:36;10.00;99.90
18882;DHT22;9573;50.948;11.600;2023-05-29T00:21:11;9.90;99.90
18882;DHT22;9573;50.948;11.600;2023-05-29T00:23:39;9.90;99.90
18882;DHT22;9573;50.948;11.600;2023-05-29T00:26:07;9.90;99.90
18882;DHT22;9573;50.948;11.600;2023-05-29T00:28:35;9.90;99.90
18882;DHT22;9573;50.948;11.600;2023-05-29T00:31:02;9.80;99.90
18882;DHT22;9573;50.948;11.600;2023-05-29T00:33:30;9.80;99.90
18882;DHT22;9573;50.948;11.600;2023-05-29T00:35:57;9.80;99.90
18882;DHT22;9573;50.948;11.600;2023-05-29T00:38:24;9.70;99.90
18882;DHT22;9573;50.948;11.600;2023-05-29T00:40:51;9.60;99.90
18882;DHT22;9573;50.948;11.600;2023-05-29T00:43:19;9.60;99.90
18882;DHT22;9573;50.948;11.600;2023-05-29T00:45:47;9.60;99.90
18882;DHT22;9573;50.948;11.600;2023-05-29T00:48:14;9.60;99.90
18882;DHT22;9573;50.948;11.600;2023-05-29T00:50:43;9.60;99.90
18882;DHT22;9573;50.948;11.600;2023-05-29T00:53:10;9.50;99.90
18882;DHT22;9573;50.948;11.600;2023-05-29T00:55:38;9.50;99.90
18882;DHT22;9573;50.948;11.600;2023-05-29T00:58:06;9.50;99.90
18882;DHT22;9573;50.948;11.600;2023-05-29T01:00:35;9.50;99.90
18882;DHT22;9573;50.948;11.600;2023-05-29T01:03:04;9.40;99.90
18882;DHT22;9573;50.948;11.600;2023-05-29T01:05:34;9.40;99.90
18882;DHT22;9573;50.948;11.600;2023-05-29T01:08:02;9.40;99.90
18882;DHT22;9573;50.948;11.600;2023-05-29T01:10:29;9.40;99.90
18882;DHT22;9573;50.948;11.600;2023-05-29T01:13:00;9.30;99.90
18882;DHT22;9573;50.948;11.600;2023-05-29T01:15:43;9.30;99.90
18882;DHT22;9573;50.948;11.600;2023-05-29T01:18:22;9.20;99.90
18882;DHT22;9573;50.948;11.600;2023-05-29T01:20:57;9.20;99.90
18882;DHT22;9573;50.948;11.600;2023-05-29T01:24:08;9.10;99.90
18882;DHT22;9573;50.948;11.600;2023-05-29T01:26:51;9.10;99.90
18882;DHT22;9573;50.948;11.600;2023-05-29T01:29:22;9.00;99.90
18882;DHT22;9573;50.948;11.600;2023-05-29T01:31:50;9.00;99.90
18882;DHT22;9573;50.948;11.600;2023-05-29T01:34:18;9.00;99.90
18882;DHT22;9573;50.948;11.600;2023-05-29T01:36:45;8.90;99.90
18882;DHT22;9573;50.948;11.600;2023-05-29T01:39:13;8.90;99.90
18882;DHT22;9573;50.948;11.600;2023-05-29T01:41:41;9.00;99.90
18882;DHT22;9573;50.948;11.600;2023-05-29T01:44:10;8.90;99.90
18882;DHT22;9573;50.948;11.600;2023-05-29T01:46:40;8.90;99.90
18882;DHT22;9573;50.948;11.600;2023-05-29T01:49:08;8.90;99.90
18882;DHT22;9573;50.948;11.600;2023-05-29T01:51:36;8.80;99.90
18882;DHT22;9573;50.948;11.600;2023-05-29T01:54:04;8.80;99.90
18882;DHT22;9573;50.948;11.600;2023-05-29T01:56:31;8.70;99.90
18882;DHT22;9573;50.948;11.600;2023-05-29T01:59:00;8.70;99.90
18882;DHT22;9573;50.948;11.600;2023-05-29T02:01:31;8.70;99.90
18882;DHT22;9573;50.948;11.600;2023-05-29T02:03:58;8.60;99.90
18882;DHT22;9573;50.948;11.600;2023-05-29T02:06:25;8.60;99.90
18882;DHT22;9573;50.948;11.600;2023-05-29T02:08:52;8.60;99.90
18882;DHT22;9573;50.948;11.600;2023-05-29T02:11:19;8.60;99.90
18882;DHT22;9573;50.948;11.600;2023-05-29T02:13:47;8.60;99.90
18882;DHT22;9573;50.948;11.600;2023-05-29T02:16:14;8.60;99.90
18882;DHT22;9573;50.948;11.600;2023-05-29T02:18:44;8.50;99.90
18882;DHT22;9573;50.948;11.600;2023-05-29T02:21:11;8.50;99.90
18882;DHT22;9573;50.948;11.600;2023-05-29T02:23:38;8.40;99.90
18882;DHT22;9573;50.948;11.600;2023-05-29T02:26:05;8.40;99.90
18882;DHT22;9573;50.948;11.600;2023-05-29T02:28:33;8.40;99.90
18882;DHT22;9573;50.948;11.600;2023-05-29T02:31:01;8.30;99.90
18882;DHT22;9573;50.948;11.600;2023-05-29T02:33:28;8.40;99.90
18882;DHT22;9573;50.948;11.600;2023-05-29T02:35:57;8.30;99.90
18882;DHT22;9573;50.948;11.600;2023-05-29T02:38:24;8.30;99.90
18882;DHT22;9573;50.948;11.600;2023-05-29T02:40:52;8.30;99.90
18882;DHT22;9573;50.948;11.600;2023-05-29T02:43:21;8.30;99.90
18882;DHT22;9573;50.948;11.600;2023-05-29T02:45:49;8.30;99.90
18882;DHT22;9573;50.948;11.600;2023-05-29T02:48:16;8.20;99.90
18882;DHT22;9573;50.948;11.600;2023-05-29T02:50:43;8.20;99.90
18882;DHT22;9573;50.948;11.600;2023-05-29T02:53:11;8.20;99.90
18882;DHT22;9573;50.948;11.600;2023-05-29T02:55:39;8.20;99.90
18882;DHT22;9573;50.948;11.600;2023-05-29T02:58:06;8.20;99.90
18882;DHT22;9573;50.948;11.600;2023-05-29T03:00:33;8.10;99.90
18882;DHT22;9573;50.948;11.600;2023-05-29T03:03:00;8.20;99.90
18882;DHT22;9573;50.948;11.600;2023-05-29T03:05:28;8.20;99.90
18882;DHT22;9573;50.948;11.600;2023-05-29T03:07:55;8.00;99.90
18882;DHT22;9573;50.948;11.600;2023-05-29T03:10:24;8.10;99.90
18882;DHT22;9573;50.948;11.600;2023-05-29T03:12:51;8.10;99.90
18882;DHT22;9573;50.948;11.600;2023-05-29T03:15:18;8.10;99.90
18882;DHT22;9573;50.948;11.600;2023-05-29T03:17:46;8.20;99.90
18882;DHT22;9573;50.948;11.600;2023-05-29T03:20:13;8.20;99.90
18882;DHT22;9573;50.948;11.600;2023-05-29T03:22:41;8.20;99.90
18882;DHT22;9573;50.948;11.600;2023-05-29T03:25:08;8.30;99.90
18882;DHT22;9573;50.948;11.600;2023-05-29T03:27:37;8.20;99.90
18882;DHT22;9573;50.948;11.600;2023-05-29T03:30:05;8.30;99.90
18882;DHT22;9573;50.948;11.600;2023-05-29T03:32:35;8.50;99.90
18882;DHT22;9573;50.948;11.600;2023-05-29T03:35:02;8.80;99.90
18882;DHT22;9573;50.948;11.600;2023-05-29T03:37:30;9.50;99.90
18882;DHT22;9573;50.948;11.600;2023-05-29T03:39:57;10.10;99.90
18882;DHT22;9573;50.948;11.600;2023-05-29T03:42:24;10.80;99.90
18882;DHT22;9573;50.948;11.600;2023-05-29T03:44:52;11.40;99.90
18882;DHT22;9573;50.948;11.600;2023-05-29T03:47:20;11.60;99.90
18882;DHT22;9573;50.948;11.600;2023-05-29T03:49:47;11.20;99.90
18882;DHT22;9573;50.948;11.600;2023-05-29T03:52:14;10.80;99.90
18882;DHT22;9573;50.948;11.600;2023-05-29T03:54:41;10.50;99.90
18882;DHT22;9573;50.948;11.600;2023-05-29T03:57:10;10.60;99.90
18882;DHT22;9573;50.948;11.600;2023-05-29T03:59:37;11.30;99.90
18882;DHT22;9573;50.948;11.600;2023-05-29T04:02:05;12.40;99.90
18882;DHT22;9573;50.948;11.600;2023-05-29T04:04:33;14.00;99.90
18882;DHT22;9573;50.948;11.600;2023-05-29T04:07:00;15.30;99.90
18882;DHT22;9573;50.948;11.600;2023-05-29T04:09:27;16.10;99.90
18882;DHT22;9573;50.948;11.600;2023-05-29T04:11:55;16.80;99.90
18882;DHT22;9573;50.948;11.600;2023-05-29T04:14:22;17.50;99.90
18882;DHT22;9573;50.948;11.600;2023-05-29T04:16:49;18.10;99.90
18882;DHT22;9573;50.948;11.600;2023-05-29T04:19:17;19.00;99.90
18882;DHT22;9573;50.948;11.600;2023-05-29T04:21:46;19.60;99.90
18882;DHT22;9573;50.948;11.600;2023-05-29T04:24:13;20.40;99.90
18882;DHT22;9573;50.948;11.600;2023-05-29T04:26:40;21.00;99.90
18882;DHT22;9573;50.948;11.600;2023-05-29T04:29:08;21.40;99.90
18882;DHT22;9573;50.948;11.600;2023-05-29T04:31:38;22.20;99.90
18882;DHT22;9573;50.948;11.600;2023-05-29T04:34:05;22.50;99.30
18882;DHT22;9573;50.948;11.600;2023-05-29T04:36:34;23.00;97.40
18882;DHT22;9573;50.948;11.600;2023-05-29T04:39:04;23.40;96.20
18882;DHT22;9573;50.948;11.600;2023-05-29T04:41:31;23.90;93.70
18882;DHT22;9573;50.948;11.600;2023-05-29T04:43:59;24.10;93.00
18882;DHT22;9573;50.948;11.600;2023-05-29T04:46:26;24.40;91.80
18882;DHT22;9573;50.948;11.600;2023-05-29T04:48:53;25.10;90.10
18882;DHT22;9573;50.948;11.600;2023-05-29T04:51:20;25.90;86.70
18882;DHT22;9573;50.948;11.600;2023-05-29T04:53:51;26.40;82.70
18882;DHT22;9573;50.948;11.600;2023-05-29T04:56:18;27.00;77.70
18882;DHT22;9573;50.948;11.600;2023-05-29T04:58:46;27.40;75.30
18882;DHT22;9573;50.948;11.600;2023-05-29T05:01:13;27.80;71.90
18882;DHT22;9573;50.948;11.600;2023-05-29T05:03:40;28.00;70.30
18882;DHT22;9573;50.948;11.600;2023-05-29T05:06:08;28.30;69.30
18882;DHT22;9573;50.948;11.600;2023-05-29T05:08:35;28.60;68.10
18882;DHT22;9573;50.948;11.600;2023-05-29T05:11:04;29.10;66.10
18882;DHT22;9573;50.948;11.600;2023-05-29T05:13:32;29.60;64.50
18882;DHT22;9573;50.948;11.600;2023-05-29T05:15:59;29.70;63.80
18882;DHT22;9573;50.948;11.600;2023-05-29T05:18:27;29.70;64.10
18882;DHT22;9573;50.948;11.600;2023-05-29T05:20:54;29.80;64.00
18882;DHT22;9573;50.948;11.600;2023-05-29T05:23:21;30.20;63.20
18882;DHT22;9573;50.948;11.600;2023-05-29T05:25:48;30.80;61.10
18882;DHT22;9573;50.948;11.600;2023-05-29T05:28:17;31.20;59.80
18882;DHT22;9573;50.948;11.600;2023-05-29T05:30:45;31.30;59.40
18882;DHT22;9573;50.948;11.600;2023-05-29T05:33:12;31.50;59.10
18882;DHT22;9573;50.948;11.600;2023-05-29T05:35:39;32.10;58.60
18882;DHT22;9573;50.948;11.600;2023-05-29T05:38:06;32.70;57.30
18882;DHT22;9573;50.948;11.600;2023-05-29T05:40:33;33.30;56.40
18882;DHT22;9573;50.948;11.600;2023-05-29T05:43:01;33.80;55.80
18882;DHT22;9573;50.948;11.600;2023-05-29T05:45:29;34.00;55.20
18882;DHT22;9573;50.948;11.600;2023-05-29T05:47:59;34.00;55.00
18882;DHT22;9573;50.948;11.600;2023-05-29T05:50:26;34.30;54.40
18882;DHT22;9573;50.948;11.600;2023-05-29T05:52:53;34.80;53.50
18882;DHT22;9573;50.948;11.600;2023-05-29T05:55:21;35.50;52.70
18882;DHT22;9573;50.948;11.600;2023-05-29T05:57:48;36.00;51.50
18882;DHT22;9573;50.948;11.600;2023-05-29T06:00:17;36.30;50.90
18882;DHT22;9573;50.948;11.600;2023-05-29T06:02:46;36.50;50.80
18882;DHT22;9573;50.948;11.600;2023-05-29T06:05:13;36.40;50.50
18882;DHT22;9573;50.948;11.600;2023-05-29T06:07:40;36.60;50.00
18882;DHT22;9573;50.948;11.600;2023-05-29T06:10:08;36.40;49.40
18882;DHT22;9573;50.948;11.600;2023-05-29T06:12:35;36.40;49.70
18882;DHT22;9573;50.948;11.600;2023-05-29T06:15:02;36.40;49.70
18882;DHT22;9573;50.948;11.600;2023-05-29T06:17:31;36.40;49.40
18882;DHT22;9573;50.948;11.600;2023-05-29T06:19:59;36.60;49.70
18882;DHT22;9573;50.948;11.600;2023-05-29T06:22:26;36.50;49.20
18882;DHT22;9573;50.948;11.600;2023-05-29T06:24:53;36.40;49.10
18882;DHT22;9573;50.948;11.600;2023-05-29T06:27:20;36.30;49.40
18882;DHT22;9573;50.948;11.600;2023-05-29T06:29:51;36.50;49.60
18882;DHT22;9573;50.948;11.600;2023-05-29T06:32:18;36.90;48.70
18882;DHT22;9573;50.948;11.600;2023-05-29T06:34:46;37.00;48.60
18882;DHT22;9573;50.948;11.600;2023-05-29T06:37:16;37.20;48.40
18882;DHT22;9573;50.948;11.600;2023-05-29T06:39:44;37.70;47.80
18882;DHT22;9573;50.948;11.600;2023-05-29T06:42:12;37.80;47.90
18882;DHT22;9573;50.948;11.600;2023-05-29T06:44:39;37.90;47.60
18882;DHT22;9573;50.948;11.600;2023-05-29T06:47:06;38.40;47.40
18882;DHT22;9573;50.948;11.600;2023-05-29T06:49:33;38.50;46.90
18882;DHT22;9573;50.948;11.600;2023-05-29T06:52:00;38.10;46.60
18882;DHT22;9573;50.948;11.600;2023-05-29T06:54:29;38.40;46.90
18882;DHT22;9573;50.948;11.600;2023-05-29T06:56:56;38.50;46.30
18882;DHT22;9573;50.948;11.600;2023-05-29T06:59:23;38.40;46.50
18882;DHT22;9573;50.948;11.600;2023-05-29T07:01:50;38.50;46.00
18882;DHT22;9573;50.948;11.600;2023-05-29T07:04:17;38.70;46.10
18882;DHT22;9573;50.948;11.600;2023-05-29T07:06:44;38.80;45.50
18882;DHT22;9573;50.948;11.600;2023-05-29T07:09:12;38.50;45.80
18882;DHT22;9573;50.948;11.600;2023-05-29T07:11:40;38.40;45.80
18882;DHT22;9573;50.948;11.600;2023-05-29T07:14:07;38.40;45.70
18882;DHT22;9573;50.948;11.600;2023-05-29T07:16:34;38.80;45.70
18882;DHT22;9573;50.948;11.600;2023-05-29T07:19:01;39.30;45.30
18882;DHT22;9573;50.948;11.600;2023-05-29T07:21:28;39.80;45.10
18882;DHT22;9573;50.948;11.600;2023-05-29T07:23:57;40.00;44.40
18882;DHT22;9573;50.948;11.600;2023-05-29T07:26:24;40.10;44.00
18882;DHT22;9573;50.948;11.600;2023-05-29T07:28:52;40.00;44.10
18882;DHT22;9573;50.948;11.600;2023-05-29T07:31:19;39.70;44.40
18882;DHT22;9573;50.948;11.600;2023-05-29T07:33:47;40.20;44.70
18882;DHT22;9573;50.948;11.600;2023-05-29T07:36:15;40.70;43.60
18882;DHT22;9573;50.948;11.600;2023-05-29T07:38:43;40.80;43.00
18882;DHT22;9573;50.948;11.600;2023-05-29T07:41:10;41.20;42.70
18882;DHT22;9573;50.948;11.600;2023-05-29T07:43:37;41.40;42.40
18882;DHT22;9573;50.948;11.600;2023-05-29T07:46:06;41.70;42.00
18882;DHT22;9573;50.948;11.600;2023-05-29T07:48:33;41.80;41.50
18882;DHT22;9573;50.948;11.600;2023-05-29T07:51:00;41.50;41.10
18882;DHT22;9573;50.948;11.600;2023-05-29T07:53:27;41.60;41.30
18882;DHT22;9573;50.948;11.600;2023-05-29T07:55:54;41.00;41.50
18882;DHT22;9573;50.948;11.600;2023-05-29T07:58:21;40.80;41.70
18882;DHT22;9573;50.948;11.600;2023-05-29T08:00:49;41.40;41.10
18882;DHT22;9573;50.948;11.600;2023-05-29T08:03:17;41.60;41.00
18882;DHT22;9573;50.948;11.600;2023-05-29T08:05:45;41.50;40.70
18882;DHT22;9573;50.948;11.600;2023-05-29T08:08:12;41.20;41.10
18882;DHT22;9573;50.948;11.600;2023-05-29T08:10:39;41.40;40.70
18882;DHT22;9573;50.948;11.600;2023-05-29T08:13:06;41.40;40.50
18882;DHT22;9573;50.948;11.600;2023-05-29T08:15:33;40.90;40.80
18882;DHT22;9573;50.948;11.600;2023-05-29T08:18:00;40.80;41.10
18882;DHT22;9573;50.948;11.600;2023-05-29T08:20:29;40.90;40.80
18882;DHT22;9573;50.948;11.600;2023-05-29T08:22:57;40.70;41.10
18882;DHT22;9573;50.948;11.600;2023-05-29T08:25:24;40.80;41.30
18882;DHT22;9573;50.948;11.600;2023-05-29T08:27:51;41.20;40.90
18882;DHT22;9573;50.948;11.600;2023-05-29T08:30:18;41.60;40.50
18882;DHT22;9573;50.948;11.600;2023-05-29T08:32:45;41.70;40.80
18882;DHT22;9573;50.948;11.600;2023-05-29T08:35:12;41.50;39.70
18882;DHT22;9573;50.948;11.600;2023-05-29T08:37:41;40.50;40.60
18882;DHT22;9573;50.948;11.600;2023-05-29T08:40:09;40.50;41.00
18882;DHT22;9573;50.948;11.600;2023-05-29T08:42:45;40.10;41.40
18882;DHT22;9573;50.948;11.600;2023-05-29T08:45:14;40.00;42.00
18882;DHT22;9573;50.948;11.600;2023-05-29T08:47:41;39.50;41.50
18882;DHT22;9573;50.948;11.600;2023-05-29T08:50:10;39.10;42.20
18882;DHT22;9573;50.948;11.600;2023-05-29T08:52:38;39.40;41.90
18882;DHT22;9573;50.948;11.600;2023-05-29T08:55:08;39.50;41.60
18882;DHT22;9573;50.948;11.600;2023-05-29T08:57:37;38.90;41.70
18882;DHT22;9573;50.948;11.600;2023-05-29T09:00:05;38.60;42.00
18882;DHT22;9573;50.948;11.600;2023-05-29T09:02:37;38.20;42.70
18882;DHT22;9573;50.948;11.600;2023-05-29T09:05:13;38.30;42.40
18882;DHT22;9573;50.948;11.600;2023-05-29T09:07:41;38.40;43.30
18882;DHT22;9573;50.948;11.600;2023-05-29T09:10:12;38.40;43.00
18882;DHT22;9573;50.948;11.600;2023-05-29T09:12:41;38.90;41.60
18882;DHT22;9573;50.948;11.600;2023-05-29T09:15:17;38.90;42.10
18882;DHT22;9573;50.948;11.600;2023-05-29T09:17:49;39.10;41.30
18882;DHT22;9573;50.948;11.600;2023-05-29T09:20:18;39.00;41.70
18882;DHT22;9573;50.948;11.600;2023-05-29T09:22:57;38.70;42.10
18882;DHT22;9573;50.948;11.600;2023-05-29T09:25:28;38.70;42.40
18882;DHT22;9573;50.948;11.600;2023-05-29T09:27:58;38.40;42.90
18882;DHT22;9573;50.948;11.600;2023-05-29T09:30:37;38.10;43.60
18882;DHT22;9573;50.948;11.600;2023-05-29T09:33:06;37.30;43.20
18882;DHT22;9573;50.948;11.600;2023-05-29T09:35:36;36.50;44.10
18882;DHT22;9573;50.948;11.600;2023-05-29T09:38:05;36.00;45.40
18882;DHT22;9573;50.948;11.600;2023-05-29T09:40:34;36.00;44.60
18882;DHT22;9573;50.948;11.600;2023-05-29T09:43:09;35.70;44.80
18882;DHT22;9573;50.948;11.600;2023-05-29T09:45:38;35.40;45.40
18882;DHT22;9573;50.948;11.600;2023-05-29T09:48:15;34.30;46.30
18882;DHT22;9573;50.948;11.600;2023-05-29T09:50:47;33.80;46.80
18882;DHT22;9573;50.948;11.600;2023-05-29T09:53:20;33.70;46.80
18882;DHT22;9573;50.948;11.600;2023-05-29T09:55:50;33.20;46.90
18882;DHT22;9573;50.948;11.600;2023-05-29T09:58:18;33.10;47.10
18882;DHT22;9573;50.948;11.600;2023-05-29T10:00:45;33.50;46.70
18882;DHT22;9573;50.948;11.600;2023-05-29T10:03:13;33.60;47.00
18882;DHT22;9573;50.948;11.600;2023-05-29T10:05:40;33.80;46.90
18882;DHT22;9573;50.948;11.600;2023-05-29T10:08:11;33.70;47.30
18882;DHT22;9573;50.948;11.600;2023-05-29T10:10:43;34.00;47.60
18882;DHT22;9573;50.948;11.600;2023-05-29T10:13:12;34.50;47.20
18882;DHT22;9573;50.948;11.600;2023-05-29T10:15:41;35.00;46.50
18882;DHT22;9573;50.948;11.600;2023-05-29T10:18:14;35.10;46.30
18882;DHT22;9573;50.948;11.600;2023-05-29T10:20:52;35.60;45.50
18882;DHT22;9573;50.948;11.600;2023-05-29T10:23:23;35.60;45.40
18882;DHT22;9573;50.948;11.600;2023-05-29T10:25:53;35.40;45.80
18882;DHT22;9573;50.948;11.600;2023-05-29T10:28:25;35.10;45.30
18882;DHT22;9573;50.948;11.600;2023-05-29T10:30:55;34.40;46.20
18882;DHT22;9573;50.948;11.600;2023-05-29T10:33:37;33.50;47.20
18882;DHT22;9573;50.948;11.600;2023-05-29T10:36:13;33.20;47.50
18882;DHT22;9573;50.948;11.600;2023-05-29T10:38:44;32.90;47.80
18882;DHT22;9573;50.948;11.600;2023-05-29T10:41:32;33.00;48.30
18882;DHT22;9573;50.948;11.600;2023-05-29T10:44:39;32.90;48.10
18882;DHT22;9573;50.948;11.600;2023-05-29T10:47:07;32.80;48.70
18882;DHT22;9573;50.948;11.600;2023-05-29T10:49:39;32.30;48.20
18882;DHT22;9573;50.948;11.600;2023-05-29T10:52:18;31.70;49.70
18882;DHT22;9573;50.948;11.600;2023-05-29T10:54:51;31.50;51.30
18882;DHT22;9573;50.948;11.600;2023-05-29T10:57:25;31.90;50.20
18882;DHT22;9573;50.948;11.600;2023-05-29T10:59:59;32.20;49.10
18882;DHT22;9573;50.948;11.600;2023-05-29T11:02:36;31.80;49.30
18882;DHT22;9573;50.948;11.600;2023-05-29T11:05:18;31.90;49.20
18882;DHT22;9573;50.948;11.600;2023-05-29T11:07:55;31.90;49.10
18882;DHT22;9573;50.948;11.600;2023-05-29T11:10:45;31.80;49.30
18882;DHT22;9573;50.948;11.600;2023-05-29T11:13:25;31.40;49.90
18882;DHT22;9573;50.948;11.600;2023-05-29T11:16:11;31.20;48.60
18882;DHT22;9573;50.948;11.600;2023-05-29T11:18:43;31.10;49.70
18882;DHT22;9573;50.948;11.600;2023-05-29T11:24:02;31.70;49.00
18882;DHT22;9573;50.948;11.600;2023-05-29T11:26:31;31.40;48.10
18882;DHT22;9573;50.948;11.600;2023-05-29T11:29:00;31.30;48.50
18882;DHT22;9573;50.948;11.600;2023-05-29T11:31:32;31.30;49.20
18882;DHT22;9573;50.948;11.600;2023-05-29T11:34:02;31.60;49.70
18882;DHT22;9573;50.948;11.600;2023-05-29T11:36:31;32.20;49.30
18882;DHT22;9573;50.948;11.600;2023-05-29T11:39:01;32.30;48.90
18882;DHT22;9573;50.948;11.600;2023-05-29T11:41:29;32.20;48.00
18882;DHT22;9573;50.948;11.600;2023-05-29T11:43:57;32.00;48.40
18882;DHT22;9573;50.948;11.600;2023-05-29T11:46:28;31.50;49.20
18882;DHT22;9573;50.948;11.600;2023-05-29T11:48:58;31.10;49.50
18882;DHT22;9573;50.948;11.600;2023-05-29T11:51:25;30.80;49.40
18882;DHT22;9573;50.948;11.600;2023-05-29T11:53:52;30.60;49.40
18882;DHT22;9573;50.948;11.600;2023-05-29T11:56:24;30.30;49.80
18882;DHT22;9573;50.948;11.600;2023-05-29T11:58:51;30.10;50.90
18882;DHT22;9573;50.948;11.600;2023-05-29T12:01:23;30.50;50.80
18882;DHT22;9573;50.948;11.600;2023-05-29T12:03:51;30.70;50.60
18882;DHT22;9573;50.948;11.600;2023-05-29T12:06:31;30.30;51.90
18882;DHT22;9573;50.948;11.600;2023-05-29T12:08:59;29.10;52.80
18882;DHT22;9573;50.948;11.600;2023-05-29T12:11:27;28.20;54.50
18882;DHT22;9573;50.948;11.600;2023-05-29T12:13:58;27.80;55.70
18882;DHT22;9573;50.948;11.600;2023-05-29T12:16:28;27.70;55.30
18882;DHT22;9573;50.948;11.600;2023-05-29T12:18:57;27.80;54.90
18882;DHT22;9573;50.948;11.600;2023-05-29T12:21:24;28.10;54.80
18882;DHT22;9573;50.948;11.600;2023-05-29T12:23:53;28.00;54.70
18882;DHT22;9573;50.948;11.600;2023-05-29T12:26:23;28.20;53.70
18882;DHT22;9573;50.948;11.600;2023-05-29T12:28:52;28.40;53.70
18882;DHT22;9573;50.948;11.600;2023-05-29T12:31:38;28.20;53.80
18882;DHT22;9573;50.948;11.600;2023-05-29T12:34:08;28.20;54.10
18882;DHT22;9573;50.948;11.600;2023-05-29T12:36:40;28.10;54.20
18882;DHT22;9573;50.948;11.600;2023-05-29T12:39:07;28.20;54.40
18882;DHT22;9573;50.948;11.600;2023-05-29T12:41:36;28.30;54.70
18882;DHT22;9573;50.948;11.600;2023-05-29T12:44:05;28.50;53.70
18882;DHT22;9573;50.948;11.600;2023-05-29T12:46:39;28.60;54.50
18882;DHT22;9573;50.948;11.600;2023-05-29T12:49:12;28.50;53.40
18882;DHT22;9573;50.948;11.600;2023-05-29T12:51:41;28.00;53.30
18882;DHT22;9573;50.948;11.600;2023-05-29T12:54:09;27.70;55.00
18882;DHT22;9573;50.948;11.600;2023-05-29T12:56:37;27.20;55.60
18882;DHT22;9573;50.948;11.600;2023-05-29T12:59:05;27.10;56.90
18882;DHT22;9573;50.948;11.600;2023-05-29T13:01:33;27.40;56.50
18882;DHT22;9573;50.948;11.600;2023-05-29T13:04:03;27.60;55.30
18882;DHT22;9573;50.948;11.600;2023-05-29T13:06:38;27.50;54.80
18882;DHT22;9573;50.948;11.600;2023-05-29T13:09:05;27.00;55.30
18882;DHT22;9573;50.948;11.600;2023-05-29T13:11:36;26.30;56.40
18882;DHT22;9573;50.948;11.600;2023-05-29T13:14:03;25.80;57.10
18882;DHT22;9573;50.948;11.600;2023-05-29T13:16:30;25.90;57.80
18882;DHT22;9573;50.948;11.600;2023-05-29T13:19:13;26.20;57.40
18882;DHT22;9573;50.948;11.600;2023-05-29T13:21:40;26.60;57.80
18882;DHT22;9573;50.948;11.600;2023-05-29T13:24:13;26.70;57.40
18882;DHT22;9573;50.948;11.600;2023-05-29T13:26:40;26.40;57.70
18882;DHT22;9573;50.948;11.600;2023-05-29T13:29:13;26.50;57.50
18882;DHT22;9573;50.948;11.600;2023-05-29T13:31:40;26.20;57.70
18882;DHT22;9573;50.948;11.600;2023-05-29T13:34:09;25.90;58.60
18882;DHT22;9573;50.948;11.600;2023-05-29T13:36:37;25.80;59.10
18882;DHT22;9573;50.948;11.600;2023-05-29T13:39:04;26.00;58.80
18882;DHT22;9573;50.948;11.600;2023-05-29T13:41:32;26.20;59.00
18882;DHT22;9573;50.948;11.600;2023-05-29T13:43:59;26.10;58.60
18882;DHT22;9573;50.948;11.600;2023-05-29T13:46:26;26.10;58.10
18882;DHT22;9573;50.948;11.600;2023-05-29T13:48:53;26.00;58.20
18882;DHT22;9573;50.948;11.600;2023-05-29T13:51:22;25.70;58.20
18882;DHT22;9573;50.948;11.600;2023-05-29T13:53:49;25.60;58.80
18882;DHT22;9573;50.948;11.600;2023-05-29T13:56:21;25.40;58.60
18882;DHT22;9573;50.948;11.600;2023-05-29T13:58:48;25.50;58.90
18882;DHT22;9573;50.948;11.600;2023-05-29T14:01:22;25.70;58.70
18882;DHT22;9573;50.948;11.600;2023-05-29T14:04:07;25.90;58.70
18882;DHT22;9573;50.948;11.600;2023-05-29T14:06:39;25.90;59.00
18882;DHT22;9573;50.948;11.600;2023-05-29T14:09:06;25.80;59.50
18882;DHT22;9573;50.948;11.600;2023-05-29T14:11:35;25.40;59.00
18882;DHT22;9573;50.948;11.600;2023-05-29T14:14:02;25.20;60.00
18882;DHT22;9573;50.948;11.600;2023-05-29T14:16:29;25.20;60.60
18882;DHT22;9573;50.948;11.600;2023-05-29T14:18:57;25.10;59.90
18882;DHT22;9573;50.948;11.600;2023-05-29T14:21:24;25.00;60.00
18882;DHT22;9573;50.948;11.600;2023-05-29T14:23:52;25.10;60.40
18882;DHT22;9573;50.948;11.600;2023-05-29T14:26:20;25.30;59.80
18882;DHT22;9573;50.948;11.600;2023-05-29T14:28:50;25.40;58.70
18882;DHT22;9573;50.948;11.600;2023-05-29T14:31:17;25.60;59.00
18882;DHT22;9573;50.948;11.600;2023-05-29T14:33:46;25.60;59.60
18882;DHT22;9573;50.948;11.600;2023-05-29T14:36:13;25.20;60.00
18882;DHT22;9573;50.948;11.600;2023-05-29T14:38:40;25.10;60.30
18882;DHT22;9573;50.948;11.600;2023-05-29T14:41:10;24.70;60.60
18882;DHT22;9573;50.948;11.600;2023-05-29T14:43:38;24.80;61.50
18882;DHT22;9573;50.948;11.600;2023-05-29T14:46:07;24.90;61.40
18882;DHT22;9573;50.948;11.600;2023-05-29T14:48:35;25.10;61.10
18882;DHT22;9573;50.948;11.600;2023-05-29T14:51:02;25.10;60.30
18882;DHT22;9573;50.948;11.600;2023-05-29T14:53:29;25.00;60.80
18882;DHT22;9573;50.948;11.600;2023-05-29T14:55:57;24.90;61.00
18882;DHT22;9573;50.948;11.600;2023-05-29T14:58:25;25.00;61.00
18882;DHT22;9573;50.948;11.600;2023-05-29T15:00:53;24.90;60.10
18882;DHT22;9573;50.948;11.600;2023-05-29T15:03:20;24.70;60.70
18882;DHT22;9573;50.948;11.600;2023-05-29T15:05:50;24.60;61.20
18882;DHT22;9573;50.948;11.600;2023-05-29T15:08:17;24.50;62.20
18882;DHT22;9573;50.948;11.600;2023-05-29T15:10:44;24.40;62.30
18882;DHT22;9573;50.948;11.600;2023-05-29T15:13:12;24.20;62.90
18882;DHT22;9573;50.948;11.600;2023-05-29T15:15:40;24.10;63.60
18882;DHT22;9573;50.948;11.600;2023-05-29T15:18:09;24.00;64.10
18882;DHT22;9573;50.948;11.600;2023-05-29T15:20:37;23.90;64.40
18882;DHT22;9573;50.948;11.600;2023-05-29T15:23:04;23.90;64.30
18882;DHT22;9573;50.948;11.600;2023-05-29T15:25:31;23.90;63.00
18882;DHT22;9573;50.948;11.600;2023-05-29T15:27:58;23.90;63.20
18882;DHT22;9573;50.948;11.600;2023-05-29T15:30:25;24.00;63.50
18882;DHT22;9573;50.948;11.600;2023-05-29T15:32:54;24.10;63.20
18882;DHT22;9573;50.948;11.600;2023-05-29T15:35:21;24.20;63.00
18882;DHT22;9573;50.948;11.600;2023-05-29T15:37:49;24.30;63.00
18882;DHT22;9573;50.948;11.600;2023-05-29T15:40:16;24.40;63.90
18882;DHT22;9573;50.948;11.600;2023-05-29T15:42:43;24.20;63.00
18882;DHT22;9573;50.948;11.600;2023-05-29T15:45:11;24.00;63.30
18882;DHT22;9573;50.948;11.600;2023-05-29T15:47:40;23.90;64.50
18882;DHT22;9573;50.948;11.600;2023-05-29T15:50:09;23.80;64.60